Time;durP1;ratioP1;P1;durP2;ratioP2;P2;SDS_P1;SDS_P2;PMS_P1;PMS_P2;Temp;Humidity;BMP_temperature;BMP_pressure;BME280_temperature;BME280_humidity;BME280_pressure;Samples;Min_cycle;Max_cycle;Signal;HPM_P1;HPM_P2
2022/06/30 00:01:31;;;;;;;3.72;1.60;;;;;;;;;;5038365;28;20445;-78
2022/06/30 00:03:57;;;;;;;6.28;1.83;;;;;;;;;;5040886;28;20074;-78
2022/06/30 00:06:23;;;;;;;4.90;1.52;;;;;;;;;;5032035;28;20148;-77
2022/06/30 00:08:49;;;;;;;8.15;1.90;;;;;;;;;;5036721;28;20040;-78
2022/06/30 00:11:15;;;;;;;12.77;2.22;;;;;;;;;;5046838;28;20067;-78
2022/06/30 00:13:41;;;;;;;6.45;2.08;;;;;;;;;;5043401;28;20067;-77
2022/06/30 00:16:08;;;;;;;5.40;1.85;;;;;;;;;;5045460;28;20033;-78
2022/06/30 00:18:34;;;;;;;5.55;1.98;;;;;;;;;;5036684;28;20021;-78
2022/06/30 00:21:01;;;;;;;4.97;1.75;;;;;;;;;;5046111;28;20688;-77
2022/06/30 00:23:27;;;;;;;5.90;1.70;;;;;;;;;;5043362;28;20036;-77
2022/06/30 00:25:53;;;;;;;4.75;1.92;;;;;;;;;;5046404;28;20065;-78
2022/06/30 00:28:19;;;;;;;5.50;2.00;;;;;;;;;;5043484;28;20035;-78
2022/06/30 00:30:49;;;;;;;3.88;1.60;;;;;;;;;;5044493;28;20096;-78
2022/06/30 00:33:15;;;;;;;5.88;1.80;;;;;;;;;;5046468;28;20112;-78
2022/06/30 00:35:41;;;;;;;5.45;1.77;;;;;;;;;;5041462;28;20226;-78
2022/06/30 00:38:07;;;;;;;4.50;1.42;;;;;;;;;;5040595;28;20029;-77
2022/06/30 00:40:37;;;;;;;6.55;1.75;;;;;;;;;;5041948;28;20534;-78
2022/06/30 00:43:03;;;;;;;6.90;1.77;;;;;;;;;;5042332;28;20068;-77
2022/06/30 00:45:29;;;;;;;9.75;1.73;;;;;;;;;;5042114;28;20025;-77
2022/06/30 00:47:55;;;;;;;7.43;1.90;;;;;;;;;;5026681;28;20044;-77
2022/06/30 00:50:21;;;;;;;9.05;2.35;;;;;;;;;;5045566;28;20038;-78
2022/06/30 00:52:50;;;;;;;7.38;1.40;;;;;;;;;;5043067;28;20033;-77
2022/06/30 00:55:17;;;;;;;4.72;1.50;;;;;;;;;;5038750;28;20037;-78
2022/06/30 00:57:43;;;;;;;4.60;1.52;;;;;;;;;;5022239;28;20057;-77
2022/06/30 01:00:10;;;;;;;7.85;1.55;;;;;;;;;;5041977;28;20042;-78
2022/06/30 01:02:36;;;;;;;5.45;1.58;;;;;;;;;;5040544;28;20079;-77
2022/06/30 01:05:02;;;;;;;5.72;1.63;;;;;;;;;;5043312;28;20033;-77
2022/06/30 01:07:29;;;;;;;3.83;1.30;;;;;;;;;;5036073;28;20029;-78
2022/06/30 01:12:44;;;;;;;10.32;2.17;;;;;;;;;;5044510;28;20505;-77
2022/06/30 01:15:20;;;;;;;7.10;1.75;;;;;;;;;;5043607;28;20029;-78
2022/06/30 01:17:47;;;;;;;9.27;2.05;;;;;;;;;;5041797;28;20037;-77
2022/06/30 01:20:13;;;;;;;12.60;2.72;;;;;;;;;;5048063;28;20108;-77
2022/06/30 01:22:40;;;;;;;6.30;1.77;;;;;;;;;;5033414;28;20090;-77
2022/06/30 01:25:06;;;;;;;9.35;2.03;;;;;;;;;;5042274;28;20029;-77
2022/06/30 01:27:33;;;;;;;8.15;1.85;;;;;;;;;;5043619;28;20127;-77
2022/06/30 01:29:59;;;;;;;6.18;1.80;;;;;;;;;;5036659;28;20060;-77
2022/06/30 01:32:28;;;;;;;6.82;2.00;;;;;;;;;;5040941;28;20113;-77
2022/06/30 01:34:54;;;;;;;7.82;1.70;;;;;;;;;;5045558;28;20033;-77
2022/06/30 01:37:20;;;;;;;6.85;2.33;;;;;;;;;;5025223;28;20033;-77
2022/06/30 01:39:46;;;;;;;9.40;2.10;;;;;;;;;;5038432;28;20025;-77
2022/06/30 01:42:12;;;;;;;8.88;2.00;;;;;;;;;;5040639;28;20083;-77
2022/06/30 01:44:38;;;;;;;10.80;2.13;;;;;;;;;;5037424;28;20029;-77
2022/06/30 01:47:04;;;;;;;3.60;1.65;;;;;;;;;;5041211;28;20087;-77
2022/06/30 01:49:30;;;;;;;6.30;2.13;;;;;;;;;;5042932;28;20057;-77
2022/06/30 01:51:56;;;;;;;5.90;1.60;;;;;;;;;;5036103;28;20582;-77
2022/06/30 01:54:23;;;;;;;8.75;2.72;;;;;;;;;;5037850;28;20033;-77
2022/06/30 01:56:49;;;;;;;9.52;2.15;;;;;;;;;;5036339;28;20029;-77
2022/06/30 01:59:15;;;;;;;3.80;1.70;;;;;;;;;;5038763;28;20689;-77
2022/06/30 02:01:41;;;;;;;7.97;1.70;;;;;;;;;;5032894;28;20065;-77
2022/06/30 02:06:52;;;;;;;4.50;2.03;;;;;;;;;;5041384;28;20114;-77
2022/06/30 02:09:19;;;;;;;3.17;1.55;;;;;;;;;;5039341;28;20045;-77
2022/06/30 02:11:45;;;;;;;9.05;2.33;;;;;;;;;;5025570;28;20056;-77
2022/06/30 02:14:11;;;;;;;6.85;1.73;;;;;;;;;;5043530;28;20044;-77
2022/06/30 02:16:37;;;;;;;4.95;1.50;;;;;;;;;;5034942;28;20045;-77
2022/06/30 02:19:03;;;;;;;7.47;1.83;;;;;;;;;;5022297;28;20063;-77
2022/06/30 02:21:29;;;;;;;5.35;1.70;;;;;;;;;;5038532;28;20029;-77
2022/06/30 02:23:55;;;;;;;5.13;1.77;;;;;;;;;;5042800;28;20033;-77
2022/06/30 02:26:22;;;;;;;5.72;1.77;;;;;;;;;;5032039;28;20068;-77
2022/06/30 02:28:48;;;;;;;3.88;1.75;;;;;;;;;;5037840;28;20391;-77
2022/06/30 02:31:14;;;;;;;5.15;1.95;;;;;;;;;;5038181;28;20107;-77
2022/06/30 02:33:40;;;;;;;5.30;1.85;;;;;;;;;;5043920;28;20041;-77
2022/06/30 02:36:07;;;;;;;4.40;1.70;;;;;;;;;;5043060;28;20048;-77
2022/06/30 02:38:33;;;;;;;6.88;2.33;;;;;;;;;;5037171;28;20033;-77
2022/06/30 02:40:59;;;;;;;3.95;1.80;;;;;;;;;;5044169;28;20033;-77
2022/06/30 02:43:25;;;;;;;5.00;1.95;;;;;;;;;;5038806;28;20694;-77
2022/06/30 02:45:51;;;;;;;7.35;2.13;;;;;;;;;;5041147;28;20043;-77
2022/06/30 02:48:18;;;;;;;4.50;1.65;;;;;;;;;;5043261;28;20049;-78
2022/06/30 02:50:44;;;;;;;5.65;2.25;;;;;;;;;;5035407;28;20053;-77
2022/06/30 02:53:11;;;;;;;6.55;1.85;;;;;;;;;;5041433;28;20033;-77
2022/06/30 02:55:37;;;;;;;5.90;1.92;;;;;;;;;;5033952;28;20033;-78
2022/06/30 02:58:03;;;;;;;8.80;2.28;;;;;;;;;;5039867;28;20105;-78
2022/06/30 03:00:29;;;;;;;11.93;2.78;;;;;;;;;;5032999;28;20458;-78
2022/06/30 03:02:57;;;;;;;7.43;1.58;;;;;;;;;;5044563;28;20039;-77
2022/06/30 03:05:23;;;;;;;9.75;2.65;;;;;;;;;;5039677;28;20048;-77
2022/06/30 03:07:49;;;;;;;6.03;2.20;;;;;;;;;;5048051;28;20029;-77
2022/06/30 03:10:15;;;;;;;9.18;2.92;;;;;;;;;;5024023;28;20041;-78
2022/06/30 03:12:41;;;;;;;5.78;2.05;;;;;;;;;;5019902;28;20031;-77
2022/06/30 03:15:07;;;;;;;6.28;1.75;;;;;;;;;;5044264;28;20045;-77
2022/06/30 03:17:33;;;;;;;5.63;2.20;;;;;;;;;;5041740;28;20025;-78
2022/06/30 03:20:00;;;;;;;8.25;2.22;;;;;;;;;;5019825;28;20031;-77
2022/06/30 03:22:26;;;;;;;7.00;2.15;;;;;;;;;;5038974;28;20677;-77
2022/06/30 03:24:52;;;;;;;5.55;1.90;;;;;;;;;;5037739;28;20038;-77
2022/06/30 03:27:18;;;;;;;6.30;1.92;;;;;;;;;;5039238;28;20036;-77
2022/06/30 03:29:44;;;;;;;6.32;2.03;;;;;;;;;;5041926;28;20099;-77
2022/06/30 03:32:10;;;;;;;12.77;2.58;;;;;;;;;;5033273;28;20092;-77
2022/06/30 03:34:36;;;;;;;5.97;2.38;;;;;;;;;;5045794;28;20043;-77
2022/06/30 03:37:02;;;;;;;9.75;2.85;;;;;;;;;;5046254;28;20029;-78
2022/06/30 03:39:29;;;;;;;5.53;2.08;;;;;;;;;;5036491;28;20033;-77
2022/06/30 03:41:55;;;;;;;7.07;2.13;;;;;;;;;;5039394;28;20489;-77
2022/06/30 03:44:21;;;;;;;6.95;2.42;;;;;;;;;;5037600;28;20034;-78
2022/06/30 03:46:47;;;;;;;7.38;2.20;;;;;;;;;;5031994;28;20040;-78
2022/06/30 03:49:13;;;;;;;7.47;3.42;;;;;;;;;;5037693;28;20075;-77
2022/06/30 03:51:39;;;;;;;9.75;2.22;;;;;;;;;;5038452;28;20039;-77
2022/06/30 03:54:05;;;;;;;5.35;2.03;;;;;;;;;;5037329;28;20033;-78
2022/06/30 03:56:31;;;;;;;7.65;2.78;;;;;;;;;;5038963;28;20091;-77
2022/06/30 03:58:57;;;;;;;7.88;2.85;;;;;;;;;;5039559;28;20029;-77
2022/06/30 04:01:23;;;;;;;9.52;3.60;;;;;;;;;;5039084;28;20029;-77
2022/06/30 04:03:49;;;;;;;8.90;2.95;;;;;;;;;;5032676;28;20043;-78
2022/06/30 04:06:15;;;;;;;8.23;3.30;;;;;;;;;;5038719;28;20061;-77
2022/06/30 04:08:41;;;;;;;8.70;3.60;;;;;;;;;;5037265;28;20804;-78
2022/06/30 04:11:07;;;;;;;8.85;3.35;;;;;;;;;;5021746;28;20098;-77
2022/06/30 04:13:33;;;;;;;6.85;2.80;;;;;;;;;;5016641;28;20033;-77
2022/06/30 04:15:59;;;;;;;11.23;3.10;;;;;;;;;;5037853;28;20624;-77
2022/06/30 04:18:25;;;;;;;8.63;3.00;;;;;;;;;;5033966;28;20037;-77
2022/06/30 04:20:51;;;;;;;5.15;2.17;;;;;;;;;;5030092;28;20099;-77
2022/06/30 04:23:17;;;;;;;4.80;2.00;;;;;;;;;;5034865;28;20040;-77
2022/06/30 04:25:43;;;;;;;7.90;2.13;;;;;;;;;;5040349;28;20029;-78
2022/06/30 04:28:09;;;;;;;8.20;2.35;;;;;;;;;;5040270;28;20793;-77
2022/06/30 04:33:20;;;;;;;8.65;3.08;;;;;;;;;;5040269;28;20052;-77
2022/06/30 04:35:46;;;;;;;17.85;3.60;;;;;;;;;;5021235;28;20622;-77
2022/06/30 04:38:12;;;;;;;10.65;3.45;;;;;;;;;;5044168;28;20391;-77
2022/06/30 04:43:23;;;;;;;12.50;4.30;;;;;;;;;;5037431;28;20048;-77
2022/06/30 04:45:49;;;;;;;12.05;4.20;;;;;;;;;;5036388;28;20132;-77
2022/06/30 04:48:15;;;;;;;11.23;4.05;;;;;;;;;;5033626;28;20037;-77
2022/06/30 04:50:41;;;;;;;13.98;3.90;;;;;;;;;;5035665;28;20037;-77
2022/06/30 04:53:07;;;;;;;12.25;3.22;;;;;;;;;;5038894;28;20417;-77
2022/06/30 04:55:33;;;;;;;10.43;4.68;;;;;;;;;;5037043;28;20071;-77
2022/06/30 04:57:59;;;;;;;10.85;3.25;;;;;;;;;;5035952;28;20033;-77
2022/06/30 05:00:25;;;;;;;9.10;3.17;;;;;;;;;;5036972;28;20493;-78
2022/06/30 05:02:52;;;;;;;11.18;3.25;;;;;;;;;;5040220;28;20067;-77
2022/06/30 05:05:18;;;;;;;9.13;3.17;;;;;;;;;;5041396;28;20064;-77
2022/06/30 05:07:44;;;;;;;11.48;4.03;;;;;;;;;;5038231;28;20032;-77
2022/06/30 05:10:10;;;;;;;11.25;3.85;;;;;;;;;;5027830;28;20383;-77
2022/06/30 05:12:36;;;;;;;9.57;3.55;;;;;;;;;;5043760;28;20044;-77
2022/06/30 05:15:02;;;;;;;12.85;3.88;;;;;;;;;;5048049;28;20028;-77
2022/06/30 05:17:28;;;;;;;13.10;2.95;;;;;;;;;;5040747;28;20029;-77
2022/06/30 05:19:54;;;;;;;14.40;3.10;;;;;;;;;;5025816;28;20029;-77
2022/06/30 05:22:20;;;;;;;11.10;3.17;;;;;;;;;;5024885;28;20367;-78
2022/06/30 05:27:30;;;;;;;9.57;3.65;;;;;;;;;;5039424;28;20051;-77
2022/06/30 05:29:56;;;;;;;7.75;2.92;;;;;;;;;;5039770;28;20478;-77
2022/06/30 05:32:22;;;;;;;13.38;3.45;;;;;;;;;;5032231;28;20076;-77
2022/06/30 05:34:48;;;;;;;13.88;3.75;;;;;;;;;;5022535;28;20108;-77
2022/06/30 05:37:14;;;;;;;8.52;3.53;;;;;;;;;;5040837;28;20048;-77
2022/06/30 05:39:40;;;;;;;13.98;3.67;;;;;;;;;;5038893;28;20036;-77
2022/06/30 05:42:07;;;;;;;12.27;3.95;;;;;;;;;;5037217;28;20046;-77
2022/06/30 05:44:33;;;;;;;14.57;3.72;;;;;;;;;;5034438;28;20037;-78
2022/06/30 05:46:59;;;;;;;11.27;3.40;;;;;;;;;;5039810;28;20065;-77
2022/06/30 05:49:25;;;;;;;10.32;3.72;;;;;;;;;;5036534;28;20188;-78
2022/06/30 05:51:54;;;;;;;13.20;3.03;;;;;;;;;;5033877;28;20049;-77
2022/06/30 05:54:20;;;;;;;9.02;2.47;;;;;;;;;;5041455;28;20038;-78
2022/06/30 05:56:46;;;;;;;9.15;2.67;;;;;;;;;;5025373;28;20970;-77
2022/06/30 05:59:12;;;;;;;9.98;3.08;;;;;;;;;;5043633;28;20028;-77
2022/06/30 06:01:38;;;;;;;11.18;3.17;;;;;;;;;;5042145;28;20033;-78
2022/06/30 06:04:05;;;;;;;9.77;3.30;;;;;;;;;;5040670;28;20040;-77
2022/06/30 06:06:31;;;;;;;10.32;3.30;;;;;;;;;;5039224;28;20033;-77
2022/06/30 06:08:57;;;;;;;12.05;3.03;;;;;;;;;;5039161;28;20426;-78
2022/06/30 06:11:23;;;;;;;7.75;2.75;;;;;;;;;;5042277;28;20052;-78
2022/06/30 06:13:49;;;;;;;8.98;2.75;;;;;;;;;;5038865;28;20033;-77
2022/06/30 06:16:15;;;;;;;11.32;2.90;;;;;;;;;;5042746;28;20114;-77
2022/06/30 06:18:41;;;;;;;9.05;2.80;;;;;;;;;;5042604;28;20054;-77
2022/06/30 06:21:07;;;;;;;8.57;2.25;;;;;;;;;;5044546;28;20482;-77
2022/06/30 06:23:33;;;;;;;8.40;2.58;;;;;;;;;;5043524;28;20044;-77
2022/06/30 06:25:59;;;;;;;7.32;2.67;;;;;;;;;;5037744;28;20033;-77
2022/06/30 06:31:10;;;;;;;6.38;2.63;;;;;;;;;;5036704;28;20383;-77
2022/06/30 06:33:36;;;;;;;11.38;2.53;;;;;;;;;;5046571;28;20554;-77
2022/06/30 06:36:02;;;;;;;6.57;2.70;;;;;;;;;;5042701;28;20037;-78
2022/06/30 06:38:28;;;;;;;7.65;2.70;;;;;;;;;;5043287;28;20029;-77
2022/06/30 06:40:56;;;;;;;5.40;2.25;;;;;;;;;;5048293;28;20560;-78
2022/06/30 06:43:22;;;;;;;9.55;2.90;;;;;;;;;;5043003;28;20029;-77
2022/06/30 06:45:48;;;;;;;5.78;2.10;;;;;;;;;;5037070;28;20045;-77
2022/06/30 06:48:14;;;;;;;7.63;2.38;;;;;;;;;;5039517;28;20044;-78
2022/06/30 06:50:40;;;;;;;10.38;2.13;;;;;;;;;;5043148;28;20037;-78
2022/06/30 06:53:06;;;;;;;6.80;2.25;;;;;;;;;;5041198;28;20033;-78
2022/06/30 06:55:32;;;;;;;7.57;2.13;;;;;;;;;;5040369;28;20619;-77
2022/06/30 06:57:58;;;;;;;7.32;1.90;;;;;;;;;;5043027;28;20025;-78
2022/06/30 07:00:24;;;;;;;9.13;2.35;;;;;;;;;;5044206;28;20037;-78
2022/06/30 07:02:50;;;;;;;6.70;1.70;;;;;;;;;;5040891;28;20442;-77
2022/06/30 07:05:16;;;;;;;7.43;1.95;;;;;;;;;;5041326;28;20045;-78
2022/06/30 07:07:42;;;;;;;7.80;2.15;;;;;;;;;;5041005;28;20040;-78
2022/06/30 07:10:08;;;;;;;7.45;2.05;;;;;;;;;;5040502;28;20032;-78
2022/06/30 07:12:35;;;;;;;7.68;1.88;;;;;;;;;;5039068;28;20643;-78
2022/06/30 07:15:01;;;;;;;9.05;1.80;;;;;;;;;;5046166;28;20055;-78
2022/06/30 07:17:27;;;;;;;5.43;1.70;;;;;;;;;;5045620;28;20167;-78
2022/06/30 07:19:53;;;;;;;8.30;2.33;;;;;;;;;;5043058;28;20029;-77
2022/06/30 07:22:19;;;;;;;6.00;1.90;;;;;;;;;;5035388;28;20064;-78
2022/06/30 07:24:45;;;;;;;7.07;2.15;;;;;;;;;;5041569;28;20029;-77
2022/06/30 07:27:11;;;;;;;6.47;1.77;;;;;;;;;;5043349;28;20082;-77
2022/06/30 07:29:38;;;;;;;9.23;3.05;;;;;;;;;;5027056;28;20022;-78
2022/06/30 07:32:04;;;;;;;8.73;2.28;;;;;;;;;;5043110;28;20067;-78
2022/06/30 07:34:30;;;;;;;5.93;1.70;;;;;;;;;;5040113;28;20033;-78
2022/06/30 07:36:56;;;;;;;7.68;2.00;;;;;;;;;;5039659;28;20482;-78
2022/06/30 07:39:22;;;;;;;6.22;1.80;;;;;;;;;;5039132;28;20029;-78
2022/06/30 07:41:48;;;;;;;8.10;1.80;;;;;;;;;;5022620;28;20494;-78
2022/06/30 07:44:14;;;;;;;7.75;1.95;;;;;;;;;;5042896;28;20517;-78
2022/06/30 07:46:40;;;;;;;5.05;1.70;;;;;;;;;;5043368;28;20033;-78
2022/06/30 07:49:06;;;;;;;8.82;2.20;;;;;;;;;;5042435;28;20068;-77
2022/06/30 07:51:32;;;;;;;7.43;1.70;;;;;;;;;;5035419;28;20686;-77
2022/06/30 07:53:58;;;;;;;7.03;1.58;;;;;;;;;;5044640;28;20022;-78
2022/06/30 07:56:24;;;;;;;8.68;1.98;;;;;;;;;;5040949;28;20029;-78
2022/06/30 07:58:50;;;;;;;5.68;1.48;;;;;;;;;;5038004;28;20021;-78
2022/06/30 08:01:19;;;;;;;6.70;1.60;;;;;;;;;;5021782;28;20037;-78
2022/06/30 08:03:45;;;;;;;6.82;1.67;;;;;;;;;;5040685;28;20025;-78
2022/06/30 08:06:11;;;;;;;6.65;1.60;;;;;;;;;;5039757;28;20041;-78
2022/06/30 08:08:37;;;;;;;5.03;1.77;;;;;;;;;;5042780;28;20035;-78
2022/06/30 08:11:03;;;;;;;7.05;1.77;;;;;;;;;;5042908;28;20832;-78
2022/06/30 08:13:29;;;;;;;4.53;1.30;;;;;;;;;;5038790;28;20095;-78
2022/06/30 08:15:56;;;;;;;4.72;1.58;;;;;;;;;;5038669;28;20033;-78
2022/06/30 08:18:22;;;;;;;5.03;1.55;;;;;;;;;;5044646;28;20036;-78
2022/06/30 08:20:48;;;;;;;5.22;1.73;;;;;;;;;;5041637;28;20116;-78
2022/06/30 08:23:14;;;;;;;5.47;1.50;;;;;;;;;;5036971;28;20141;-78
2022/06/30 08:25:40;;;;;;;5.22;1.83;;;;;;;;;;5044444;28;20048;-78
2022/06/30 08:28:08;;;;;;;6.57;1.50;;;;;;;;;;5042672;28;20033;-78
2022/06/30 08:30:34;;;;;;;4.85;1.42;;;;;;;;;;5038337;28;20080;-78
2022/06/30 08:33:00;;;;;;;5.75;1.30;;;;;;;;;;5043939;28;20024;-78
2022/06/30 08:35:26;;;;;;;4.95;1.30;;;;;;;;;;5041161;28;20033;-78
2022/06/30 08:37:54;;;;;;;5.03;1.48;;;;;;;;;;5037823;28;20103;-78
2022/06/30 08:43:08;;;;;;;5.50;1.85;;;;;;;;;;5048280;28;20097;-77
2022/06/30 08:45:35;;;;;;;5.20;1.58;;;;;;;;;;5050682;28;20470;-78
2022/06/30 08:48:01;;;;;;;6.72;2.05;;;;;;;;;;5027003;28;20029;-77
2022/06/30 08:50:27;;;;;;;4.40;1.30;;;;;;;;;;5043544;28;20044;-78
2022/06/30 08:52:54;;;;;;;9.68;1.85;;;;;;;;;;5048595;28;20029;-78
2022/06/30 08:55:27;;;;;;;5.18;1.58;;;;;;;;;;5043989;28;20128;-78
2022/06/30 08:58:05;;;;;;;5.32;1.70;;;;;;;;;;5044809;28;20030;-78
2022/06/30 09:00:31;;;;;;;4.57;1.60;;;;;;;;;;5047824;28;20455;-77
2022/06/30 09:02:57;;;;;;;5.78;1.40;;;;;;;;;;5048515;28;20678;-78
2022/06/30 09:05:23;;;;;;;6.05;1.38;;;;;;;;;;5045133;28;20079;-78
2022/06/30 09:07:49;;;;;;;7.40;1.67;;;;;;;;;;5042575;28;20368;-78
2022/06/30 09:10:15;;;;;;;4.25;1.40;;;;;;;;;;5044730;28;20091;-78
2022/06/30 09:12:55;;;;;;;6.82;1.70;;;;;;;;;;5043930;28;20036;-78
2022/06/30 09:15:21;;;;;;;4.38;1.40;;;;;;;;;;5038599;28;20083;-78
2022/06/30 09:17:47;;;;;;;3.78;1.70;;;;;;;;;;5042680;28;20021;-78
2022/06/30 09:20:14;;;;;;;6.05;1.50;;;;;;;;;;5045387;28;20043;-78
2022/06/30 09:22:40;;;;;;;4.20;1.42;;;;;;;;;;5028009;28;20021;-78
2022/06/30 09:25:08;;;;;;;5.93;1.60;;;;;;;;;;5041648;28;20414;-78
2022/06/30 09:27:35;;;;;;;5.50;1.50;;;;;;;;;;5041412;28;20045;-76
2022/06/30 09:30:03;;;;;;;3.40;1.55;;;;;;;;;;5041918;28;20128;-78
2022/06/30 09:32:29;;;;;;;5.00;1.70;;;;;;;;;;5043184;28;20091;-78
2022/06/30 09:35:06;;;;;;;4.18;1.50;;;;;;;;;;5030327;28;20029;-78
2022/06/30 09:37:32;;;;;;;6.40;1.48;;;;;;;;;;5045376;28;20033;-78
2022/06/30 09:39:58;;;;;;;7.13;1.60;;;;;;;;;;5043414;28;20068;-78
2022/06/30 09:42:38;;;;;;;3.85;1.52;;;;;;;;;;5046212;28;20056;-78
2022/06/30 09:45:05;;;;;;;7.90;1.45;;;;;;;;;;5045517;28;20043;-78
2022/06/30 09:47:31;;;;;;;6.95;1.50;;;;;;;;;;5038217;28;20060;-78
2022/06/30 09:50:01;;;;;;;4.78;1.40;;;;;;;;;;5046744;28;20036;-78
2022/06/30 09:52:27;;;;;;;8.10;1.85;;;;;;;;;;5054768;28;20040;-78
2022/06/30 09:55:00;;;;;;;3.63;1.80;;;;;;;;;;5039149;28;20137;-78
2022/06/30 09:57:47;;;;;;;7.10;1.60;;;;;;;;;;5036472;28;20029;-78
2022/06/30 10:00:14;;;;;;;6.45;1.83;;;;;;;;;;5042442;28;20048;-78
2022/06/30 10:02:42;;;;;;;6.55;1.92;;;;;;;;;;5039749;28;20017;-77
2022/06/30 10:05:09;;;;;;;4.95;1.52;;;;;;;;;;5043862;28;20039;-78
2022/06/30 10:07:37;;;;;;;3.65;1.80;;;;;;;;;;5047744;28;20108;-78
2022/06/30 10:10:04;;;;;;;6.18;1.67;;;;;;;;;;5052336;28;20039;-77
2022/06/30 10:12:30;;;;;;;6.00;1.77;;;;;;;;;;5043532;28;20025;-78
2022/06/30 10:14:57;;;;;;;4.63;1.38;;;;;;;;;;5041980;28;20025;-78
2022/06/30 10:17:27;;;;;;;7.72;1.90;;;;;;;;;;5047147;28;20036;-77
2022/06/30 10:19:53;;;;;;;4.90;1.50;;;;;;;;;;5041843;28;20505;-78
2022/06/30 10:22:20;;;;;;;5.82;2.00;;;;;;;;;;5046427;28;20025;-78
2022/06/30 10:24:47;;;;;;;8.20;1.65;;;;;;;;;;5044967;28;20036;-78
2022/06/30 10:27:13;;;;;;;4.90;1.73;;;;;;;;;;5050528;28;20033;-78
2022/06/30 10:29:57;;;;;;;6.68;2.00;;;;;;;;;;5045487;28;20048;-78
2022/06/30 10:32:23;;;;;;;5.32;1.77;;;;;;;;;;5045984;28;20051;-78
2022/06/30 10:34:55;;;;;;;9.13;2.03;;;;;;;;;;5027041;28;20029;-78
2022/06/30 10:37:27;;;;;;;5.10;1.67;;;;;;;;;;5044028;28;20680;-77
2022/06/30 10:39:56;;;;;;;5.40;2.00;;;;;;;;;;5043163;28;20032;-78
2022/06/30 10:42:40;;;;;;;7.20;2.10;;;;;;;;;;5041949;28;20028;-78
2022/06/30 10:45:06;;;;;;;5.60;2.00;;;;;;;;;;5044192;28;20117;-78
2022/06/30 10:47:32;;;;;;;5.07;1.80;;;;;;;;;;5028617;28;20036;-78
2022/06/30 10:49:59;;;;;;;7.72;2.05;;;;;;;;;;5041744;28;20017;-78
2022/06/30 10:52:25;;;;;;;6.05;1.65;;;;;;;;;;5038167;28;20029;-78
2022/06/30 10:54:59;;;;;;;7.07;1.80;;;;;;;;;;5048055;28;20431;-78
2022/06/30 10:57:25;;;;;;;7.00;2.30;;;;;;;;;;5042856;28;20522;-78
2022/06/30 10:59:51;;;;;;;5.65;1.60;;;;;;;;;;5043313;28;20056;-78
2022/06/30 11:02:22;;;;;;;7.75;1.75;;;;;;;;;;5027560;28;20125;-78
2022/06/30 11:04:49;;;;;;;5.20;1.57;;;;;;;;;;5042295;28;20029;-78
2022/06/30 11:07:19;;;;;;;5.97;1.80;;;;;;;;;;5044739;28;20029;-78
2022/06/30 11:09:48;;;;;;;4.97;1.80;;;;;;;;;;5029684;28;20036;-78
2022/06/30 11:12:15;;;;;;;7.13;2.47;;;;;;;;;;5041848;28;20059;-78
2022/06/30 11:14:46;;;;;;;4.70;2.08;;;;;;;;;;5042069;28;20033;-78
2022/06/30 11:17:19;;;;;;;4.97;1.85;;;;;;;;;;5037246;28;20041;-78
2022/06/30 11:19:48;;;;;;;5.85;1.67;;;;;;;;;;5045555;28;20029;-78
2022/06/30 11:22:16;;;;;;;5.50;1.70;;;;;;;;;;5040863;28;20129;-79
2022/06/30 11:24:43;;;;;;;13.10;2.78;;;;;;;;;;5039244;28;20029;-79
2022/06/30 11:27:19;;;;;;;5.78;2.30;;;;;;;;;;5044569;28;20120;-78
2022/06/30 11:29:48;;;;;;;11.82;2.30;;;;;;;;;;5037916;28;20025;-79
2022/06/30 11:32:15;;;;;;;8.82;2.60;;;;;;;;;;5042750;28;20139;-79
2022/06/30 11:34:41;;;;;;;8.20;2.30;;;;;;;;;;5044320;28;20036;-78
2022/06/30 11:37:08;;;;;;;6.53;2.35;;;;;;;;;;5048308;28;20087;-79
2022/06/30 11:39:34;;;;;;;7.43;2.35;;;;;;;;;;5043943;28;20030;-79
2022/06/30 11:42:06;;;;;;;7.80;2.53;;;;;;;;;;5043855;28;20413;-79
2022/06/30 11:44:35;;;;;;;;;;;;;;;;;;5047235;28;20025;-78
2022/06/30 11:47:08;;;;;;;6.30;2.00;;;;;;;;;;5043630;28;19924;-78
2022/06/30 11:49:40;;;;;;;8.65;1.90;;;;;;;;;;5041027;28;20039;-78
2022/06/30 11:52:11;;;;;;;6.82;2.20;;;;;;;;;;5045754;28;20028;-79
2022/06/30 11:54:38;;;;;;;8.95;2.28;;;;;;;;;;5045200;28;20037;-78
2022/06/30 11:57:04;;;;;;;9.57;2.40;;;;;;;;;;5040882;28;20062;-79
2022/06/30 11:59:30;;;;;;;16.17;3.17;;;;;;;;;;5025238;28;20036;-78
2022/06/30 12:02:00;;;;;;;7.75;2.42;;;;;;;;;;5046628;28;20030;-78
2022/06/30 12:04:27;;;;;;;8.93;2.20;;;;;;;;;;5036958;28;20055;-78
2022/06/30 12:06:53;;;;;;;6.28;1.90;;;;;;;;;;5041134;28;20040;-78
2022/06/30 12:09:19;;;;;;;9.18;2.20;;;;;;;;;;5044063;28;20120;-78
2022/06/30 12:11:45;;;;;;;7.97;2.20;;;;;;;;;;5044285;28;20029;-78
2022/06/30 12:14:11;;;;;;;13.82;2.75;;;;;;;;;;5039593;28;20055;-78
2022/06/30 12:16:38;;;;;;;8.35;1.63;;;;;;;;;;5038185;28;20569;-78
2022/06/30 12:19:04;;;;;;;4.35;1.85;;;;;;;;;;5042294;28;20112;-78
2022/06/30 12:21:30;;;;;;;7.30;1.52;;;;;;;;;;5044678;28;20040;-78
2022/06/30 12:23:56;;;;;;;8.35;1.42;;;;;;;;;;5049264;28;20935;-78
2022/06/30 12:26:23;;;;;;;6.20;1.35;;;;;;;;;;5030435;28;20762;-78
2022/06/30 12:28:57;;;;;;;4.55;1.33;;;;;;;;;;5042048;28;20405;-78
2022/06/30 12:31:27;;;;;;;6.10;1.73;;;;;;;;;;5049195;28;20052;-78
2022/06/30 12:33:54;;;;;;;4.40;1.60;;;;;;;;;;5046135;28;20032;-78
2022/06/30 12:36:21;;;;;;;5.07;1.30;;;;;;;;;;5042348;28;20052;-78
2022/06/30 12:38:47;;;;;;;6.82;1.25;;;;;;;;;;5052211;28;20112;-78
2022/06/30 12:41:13;;;;;;;9.30;1.77;;;;;;;;;;5044567;28;20029;-78
2022/06/30 12:43:47;;;;;;;6.85;1.92;;;;;;;;;;5046246;28;20028;-78
2022/06/30 12:46:14;;;;;;;4.47;1.30;;;;;;;;;;5042971;28;20386;-77
2022/06/30 12:48:41;;;;;;;5.70;1.70;;;;;;;;;;5045335;28;20029;-78
2022/06/30 12:51:09;;;;;;;4.47;1.60;;;;;;;;;;5045197;28;20041;-78
2022/06/30 12:53:35;;;;;;;7.00;1.95;;;;;;;;;;5036639;28;20075;-78
2022/06/30 12:56:04;;;;;;;4.03;1.52;;;;;;;;;;5048222;28;20060;-78
2022/06/30 12:59:02;;;;;;;5.03;1.60;;;;;;;;;;5043532;28;20685;-78
2022/06/30 13:01:33;;;;;;;8.10;1.90;;;;;;;;;;4982466;28;20045;-78
2022/06/30 13:03:59;;;;;;;7.03;1.80;;;;;;;;;;5047789;28;20040;-78
2022/06/30 13:06:27;;;;;;;9.60;1.83;;;;;;;;;;5045327;28;20040;-78
2022/06/30 13:08:54;;;;;;;5.50;1.70;;;;;;;;;;5049972;28;20144;-78
2022/06/30 13:11:24;;;;;;;3.22;1.50;;;;;;;;;;5047527;28;20037;-78
2022/06/30 13:13:50;;;;;;;10.33;2.33;;;;;;;;;;5054034;28;20043;-78
2022/06/30 13:16:17;;;;;;;4.10;1.85;;;;;;;;;;5041469;28;20041;-78
2022/06/30 13:18:43;;;;;;;9.82;1.85;;;;;;;;;;5041852;28;20053;-78
2022/06/30 13:21:10;;;;;;;5.88;1.48;;;;;;;;;;5041496;28;20043;-78
2022/06/30 13:23:36;;;;;;;8.30;1.73;;;;;;;;;;5044664;28;20158;-78
2022/06/30 13:26:02;;;;;;;5.25;1.90;;;;;;;;;;5024473;28;20029;-78
2022/06/30 13:28:28;;;;;;;5.95;1.40;;;;;;;;;;5044027;28;20047;-78
2022/06/30 13:30:54;;;;;;;4.97;1.50;;;;;;;;;;5045029;28;20555;-78
2022/06/30 13:33:20;;;;;;;7.03;1.70;;;;;;;;;;5046675;28;20047;-78
2022/06/30 13:35:46;;;;;;;5.68;2.08;;;;;;;;;;5027965;28;20128;-78
2022/06/30 13:38:13;;;;;;;9.10;2.03;;;;;;;;;;5046930;28;20040;-78
2022/06/30 13:40:39;;;;;;;12.35;1.50;;;;;;;;;;5030071;28;20036;-78
2022/06/30 13:43:05;;;;;;;6.47;1.45;;;;;;;;;;5044660;28;20035;-78
2022/06/30 13:45:31;;;;;;;4.65;1.40;;;;;;;;;;5042915;28;20581;-79
2022/06/30 13:47:57;;;;;;;4.75;1.20;;;;;;;;;;5045458;28;20033;-78
2022/06/30 13:50:23;;;;;;;6.10;1.25;;;;;;;;;;5037687;28;20037;-78
2022/06/30 13:52:49;;;;;;;4.72;1.38;;;;;;;;;;5047362;28;20141;-78
2022/06/30 13:55:15;;;;;;;7.28;1.67;;;;;;;;;;5047830;28;20052;-78
2022/06/30 13:57:41;;;;;;;6.30;1.48;;;;;;;;;;5047323;28;20049;-78
2022/06/30 14:00:07;;;;;;;4.75;1.30;;;;;;;;;;5041721;28;20045;-78
2022/06/30 14:02:33;;;;;;;6.93;1.70;;;;;;;;;;5048594;28;20029;-78
2022/06/30 14:05:00;;;;;;;4.78;1.48;;;;;;;;;;5043997;28;20079;-78
2022/06/30 14:07:26;;;;;;;8.82;1.77;;;;;;;;;;5044867;28;20828;-78
2022/06/30 14:09:53;;;;;;;8.80;1.30;;;;;;;;;;5044682;28;20035;-78
2022/06/30 14:12:19;;;;;;;4.40;1.25;;;;;;;;;;5046908;28;20148;-78
2022/06/30 14:14:45;;;;;;;4.10;1.30;;;;;;;;;;5029171;28;20434;-78
2022/06/30 14:17:11;;;;;;;3.70;1.23;;;;;;;;;;5042028;28;20037;-78
2022/06/30 14:19:37;;;;;;;5.15;1.20;;;;;;;;;;5042472;28;20467;-78
2022/06/30 14:22:03;;;;;;;7.47;1.25;;;;;;;;;;5045645;28;20033;-77
2022/06/30 14:24:30;;;;;;;5.88;1.40;;;;;;;;;;5038645;28;20140;-78
2022/06/30 14:26:56;;;;;;;4.22;1.55;;;;;;;;;;5042682;28;20041;-78
2022/06/30 14:29:22;;;;;;;7.38;1.23;;;;;;;;;;5038609;28;20057;-78
2022/06/30 14:31:49;;;;;;;10.90;1.85;;;;;;;;;;5043139;28;20061;-78
2022/06/30 14:34:15;;;;;;;10.98;1.52;;;;;;;;;;5041553;28;20087;-78
2022/06/30 14:36:41;;;;;;;6.47;1.30;;;;;;;;;;5044485;28;20087;-78
2022/06/30 14:39:07;;;;;;;6.90;1.98;;;;;;;;;;5042539;28;20479;-78
2022/06/30 14:44:18;;;;;;;4.00;1.50;;;;;;;;;;5042837;28;20516;-78
2022/06/30 14:46:44;;;;;;;6.75;1.35;;;;;;;;;;5040855;28;20064;-78
2022/06/30 14:49:10;;;;;;;5.90;1.42;;;;;;;;;;5044573;28;20069;-78
2022/06/30 14:51:36;;;;;;;5.75;1.63;;;;;;;;;;5028749;28;20132;-77
2022/06/30 14:54:02;;;;;;;8.65;1.48;;;;;;;;;;5041254;28;20159;-78
2022/06/30 14:56:28;;;;;;;5.45;1.65;;;;;;;;;;5042343;28;20033;-78
2022/06/30 14:58:54;;;;;;;4.03;1.27;;;;;;;;;;5047551;28;20660;-78
2022/06/30 15:01:20;;;;;;;8.93;1.33;;;;;;;;;;5026386;28;20033;-78